sensor_id;sensor_type;location;lat;lon;timestamp;temperature;humidity
21666;DHT22;10994;45.486;9.190;2023-03-04T07:31:27;13.20;99.90
21666;DHT22;10994;45.486;9.190;2023-03-04T07:33:59;11.50;99.90
21666;DHT22;10994;45.486;9.190;2023-03-04T07:36:26;11.20;99.90
21666;DHT22;10994;45.486;9.190;2023-03-04T07:38:52;11.10;99.90
21666;DHT22;10994;45.486;9.190;2023-03-04T07:41:20;10.90;99.90
21666;DHT22;10994;45.486;9.190;2023-03-04T07:43:46;10.80;99.90
21666;DHT22;10994;45.486;9.190;2023-03-04T11:24:29;10.70;99.90
21666;DHT22;10994;45.486;9.190;2023-03-04T11:27:10;13.60;99.90
21666;DHT22;10994;45.486;9.190;2023-03-04T11:34:51;13.60;99.90
21666;DHT22;10994;45.486;9.190;2023-03-04T11:37:26;13.70;99.90
21666;DHT22;10994;45.486;9.190;2023-03-04T11:39:58;13.80;99.90
21666;DHT22;10994;45.486;9.190;2023-03-04T11:45:24;13.90;99.90
21666;DHT22;10994;45.486;9.190;2023-03-04T11:48:07;14.00;99.90
21666;DHT22;10994;45.486;9.190;2023-03-04T11:50:52;14.10;99.90
21666;DHT22;10994;45.486;9.190;2023-03-04T11:53:39;14.00;99.90
21666;DHT22;10994;45.486;9.190;2023-03-04T12:01:34;14.20;99.90
21666;DHT22;10994;45.486;9.190;2023-03-04T12:09:36;14.00;99.90
21666;DHT22;10994;45.486;9.190;2023-03-04T12:18:10;14.50;99.90
21666;DHT22;10994;45.486;9.190;2023-03-04T12:26:37;14.50;99.90
21666;DHT22;10994;45.486;9.190;2023-03-04T12:48:05;16.40;99.90
21666;DHT22;10994;45.486;9.190;2023-03-04T17:29:23;17.00;99.90
21666;DHT22;10994;45.486;9.190;2023-03-04T17:31:49;14.70;99.90
21666;DHT22;10994;45.486;9.190;2023-03-04T17:34:16;14.70;99.90
21666;DHT22;10994;45.486;9.190;2023-03-04T17:36:42;14.70;99.90
21666;DHT22;10994;45.486;9.190;2023-03-04T17:39:08;14.60;99.90
21666;DHT22;10994;45.486;9.190;2023-03-04T17:41:33;14.70;99.90
21666;DHT22;10994;45.486;9.190;2023-03-04T17:44:03;14.80;99.90
21666;DHT22;10994;45.486;9.190;2023-03-04T17:46:30;14.70;99.90
21666;DHT22;10994;45.486;9.190;2023-03-04T17:48:57;14.70;99.90
21666;DHT22;10994;45.486;9.190;2023-03-04T17:51:36;14.70;99.90
21666;DHT22;10994;45.486;9.190;2023-03-04T17:54:03;14.70;99.90
21666;DHT22;10994;45.486;9.190;2023-03-04T17:56:31;14.60;99.90
21666;DHT22;10994;45.486;9.190;2023-03-04T17:58:59;14.60;99.90
21666;DHT22;10994;45.486;9.190;2023-03-04T18:01:26;14.60;99.90
21666;DHT22;10994;45.486;9.190;2023-03-04T18:03:52;14.50;99.90
21666;DHT22;10994;45.486;9.190;2023-03-04T18:06:18;14.40;99.90
21666;DHT22;10994;45.486;9.190;2023-03-04T18:08:44;14.40;99.90
21666;DHT22;10994;45.486;9.190;2023-03-04T18:11:10;14.40;99.90
21666;DHT22;10994;45.486;9.190;2023-03-04T18:13:40;14.40;99.90
21666;DHT22;10994;45.486;9.190;2023-03-04T18:16:06;14.40;99.90
21666;DHT22;10994;45.486;9.190;2023-03-04T18:18:36;14.40;99.90
21666;DHT22;10994;45.486;9.190;2023-03-04T18:21:05;14.30;99.90
21666;DHT22;10994;45.486;9.190;2023-03-04T18:23:31;14.30;99.90
21666;DHT22;10994;45.486;9.190;2023-03-04T18:25:57;14.30;99.90
21666;DHT22;10994;45.486;9.190;2023-03-04T18:28:23;14.20;99.90
21666;DHT22;10994;45.486;9.190;2023-03-04T18:30:50;14.20;99.90
21666;DHT22;10994;45.486;9.190;2023-03-04T18:33:16;14.20;99.90
21666;DHT22;10994;45.486;9.190;2023-03-04T18:35:42;14.20;99.90
21666;DHT22;10994;45.486;9.190;2023-03-04T18:38:10;14.10;99.90
21666;DHT22;10994;45.486;9.190;2023-03-04T18:40:42;14.00;99.90
21666;DHT22;10994;45.486;9.190;2023-03-04T18:43:09;14.00;99.90
21666;DHT22;10994;45.486;9.190;2023-03-04T18:45:37;14.00;99.90
21666;DHT22;10994;45.486;9.190;2023-03-04T18:48:03;14.00;99.90
21666;DHT22;10994;45.486;9.190;2023-03-04T18:50:29;14.00;99.90
21666;DHT22;10994;45.486;9.190;2023-03-04T18:52:55;14.00;99.90
21666;DHT22;10994;45.486;9.190;2023-03-04T18:55:21;13.90;99.90
21666;DHT22;10994;45.486;9.190;2023-03-04T18:57:50;13.90;99.90
21666;DHT22;10994;45.486;9.190;2023-03-04T19:00:24;13.90;99.90
21666;DHT22;10994;45.486;9.190;2023-03-04T19:05:22;13.90;99.90
21666;DHT22;10994;45.486;9.190;2023-03-04T19:07:48;13.90;99.90
21666;DHT22;10994;45.486;9.190;2023-03-04T19:10:14;13.90;99.90
21666;DHT22;10994;45.486;9.190;2023-03-04T19:12:40;13.80;99.90
21666;DHT22;10994;45.486;9.190;2023-03-04T19:15:07;13.70;99.90
21666;DHT22;10994;45.486;9.190;2023-03-04T19:17:35;13.70;99.90
21666;DHT22;10994;45.486;9.190;2023-03-04T19:20:02;13.70;99.90
21666;DHT22;10994;45.486;9.190;2023-03-04T19:22:28;13.60;99.90
21666;DHT22;10994;45.486;9.190;2023-03-04T19:24:54;13.60;99.90
21666;DHT22;10994;45.486;9.190;2023-03-04T19:27:20;13.60;99.90
21666;DHT22;10994;45.486;9.190;2023-03-04T19:29:49;13.60;99.90
21666;DHT22;10994;45.486;9.190;2023-03-04T19:32:15;13.60;99.90
21666;DHT22;10994;45.486;9.190;2023-03-04T19:34:45;13.70;99.90
21666;DHT22;10994;45.486;9.190;2023-03-04T19:37:12;13.70;99.90
21666;DHT22;10994;45.486;9.190;2023-03-04T19:39:39;13.70;99.90
21666;DHT22;10994;45.486;9.190;2023-03-04T19:42:05;13.70;99.90
21666;DHT22;10994;45.486;9.190;2023-03-04T19:44:30;13.70;99.90
21666;DHT22;10994;45.486;9.190;2023-03-04T19:46:57;13.70;99.90
21666;DHT22;10994;45.486;9.190;2023-03-04T19:49:22;13.70;99.90
21666;DHT22;10994;45.486;9.190;2023-03-04T19:51:48;13.70;99.90
21666;DHT22;10994;45.486;9.190;2023-03-04T19:54:14;13.70;99.90
21666;DHT22;10994;45.486;9.190;2023-03-04T19:56:40;13.70;99.90
21666;DHT22;10994;45.486;9.190;2023-03-04T19:59:06;13.80;99.90
21666;DHT22;10994;45.486;9.190;2023-03-04T20:01:37;13.80;99.90
21666;DHT22;10994;45.486;9.190;2023-03-04T20:04:08;13.80;99.90
21666;DHT22;10994;45.486;9.190;2023-03-04T20:06:43;13.80;99.90
21666;DHT22;10994;45.486;9.190;2023-03-04T20:09:09;13.80;99.90
21666;DHT22;10994;45.486;9.190;2023-03-04T20:11:38;13.80;99.90
21666;DHT22;10994;45.486;9.190;2023-03-04T20:14:04;13.80;99.90
21666;DHT22;10994;45.486;9.190;2023-03-04T20:16:31;13.80;99.90
21666;DHT22;10994;45.486;9.190;2023-03-04T20:18:57;13.80;99.90
21666;DHT22;10994;45.486;9.190;2023-03-04T20:21:25;13.80;99.90
21666;DHT22;10994;45.486;9.190;2023-03-04T20:23:51;13.80;99.90
21666;DHT22;10994;45.486;9.190;2023-03-04T20:26:16;13.70;99.90
21666;DHT22;10994;45.486;9.190;2023-03-04T20:28:51;13.80;99.90
21666;DHT22;10994;45.486;9.190;2023-03-04T20:31:26;13.80;99.90
21666;DHT22;10994;45.486;9.190;2023-03-04T20:33:53;13.70;99.90
21666;DHT22;10994;45.486;9.190;2023-03-04T20:36:21;13.70;99.90
21666;DHT22;10994;45.486;9.190;2023-03-04T20:38:48;13.80;99.90
21666;DHT22;10994;45.486;9.190;2023-03-04T20:41:15;13.80;99.90
21666;DHT22;10994;45.486;9.190;2023-03-04T20:43:47;13.80;99.90
21666;DHT22;10994;45.486;9.190;2023-03-04T20:46:32;13.90;99.90
21666;DHT22;10994;45.486;9.190;2023-03-04T20:49:05;13.90;99.90
21666;DHT22;10994;45.486;9.190;2023-03-04T20:51:34;14.00;99.90
21666;DHT22;10994;45.486;9.190;2023-03-04T20:54:02;14.00;99.90
21666;DHT22;10994;45.486;9.190;2023-03-04T20:56:28;14.00;99.90
21666;DHT22;10994;45.486;9.190;2023-03-04T20:58:59;14.00;99.90
21666;DHT22;10994;45.486;9.190;2023-03-04T21:01:28;14.00;99.90
21666;DHT22;10994;45.486;9.190;2023-03-04T21:03:59;14.00;99.90
21666;DHT22;10994;45.486;9.190;2023-03-04T21:06:25;14.00;99.90
21666;DHT22;10994;45.486;9.190;2023-03-04T21:08:54;14.00;99.90
21666;DHT22;10994;45.486;9.190;2023-03-04T21:11:20;14.00;99.90
21666;DHT22;10994;45.486;9.190;2023-03-04T21:13:49;14.10;99.90
21666;DHT22;10994;45.486;9.190;2023-03-04T21:16:28;14.10;99.90
21666;DHT22;10994;45.486;9.190;2023-03-04T21:18:55;14.10;99.90
21666;DHT22;10994;45.486;9.190;2023-03-04T21:21:27;14.10;99.90
21666;DHT22;10994;45.486;9.190;2023-03-04T21:23:57;14.10;99.90
21666;DHT22;10994;45.486;9.190;2023-03-04T21:26:24;14.10;99.90
21666;DHT22;10994;45.486;9.190;2023-03-04T21:28:51;14.10;99.90
21666;DHT22;10994;45.486;9.190;2023-03-04T21:31:24;14.10;99.90
21666;DHT22;10994;45.486;9.190;2023-03-04T21:33:52;14.10;99.90
21666;DHT22;10994;45.486;9.190;2023-03-04T21:36:20;14.10;99.90
21666;DHT22;10994;45.486;9.190;2023-03-04T21:38:49;14.10;99.90
21666;DHT22;10994;45.486;9.190;2023-03-04T21:41:16;14.10;99.90
21666;DHT22;10994;45.486;9.190;2023-03-04T21:43:42;14.20;99.90
21666;DHT22;10994;45.486;9.190;2023-03-04T21:46:08;14.20;99.90
21666;DHT22;10994;45.486;9.190;2023-03-04T21:48:35;14.20;99.90
21666;DHT22;10994;45.486;9.190;2023-03-04T21:51:03;14.30;99.90
21666;DHT22;10994;45.486;9.190;2023-03-04T21:53:30;14.30;99.90
21666;DHT22;10994;45.486;9.190;2023-03-04T21:55:56;14.30;99.90
21666;DHT22;10994;45.486;9.190;2023-03-04T21:58:23;14.30;99.90
21666;DHT22;10994;45.486;9.190;2023-03-04T22:00:49;14.40;99.90
21666;DHT22;10994;45.486;9.190;2023-03-04T22:03:17;14.40;99.90
21666;DHT22;10994;45.486;9.190;2023-03-04T22:05:44;14.50;99.90
21666;DHT22;10994;45.486;9.190;2023-03-04T22:08:18;14.50;99.90
21666;DHT22;10994;45.486;9.190;2023-03-04T22:10:45;14.50;99.90
21666;DHT22;10994;45.486;9.190;2023-03-04T22:13:13;14.50;99.90
21666;DHT22;10994;45.486;9.190;2023-03-04T22:15:41;14.50;99.90
21666;DHT22;10994;45.486;9.190;2023-03-04T22:18:09;14.40;99.90
21666;DHT22;10994;45.486;9.190;2023-03-04T22:20:37;14.50;99.90
21666;DHT22;10994;45.486;9.190;2023-03-04T22:23:03;14.50;99.90
21666;DHT22;10994;45.486;9.190;2023-03-04T22:25:36;14.60;99.90
21666;DHT22;10994;45.486;9.190;2023-03-04T22:28:02;14.60;99.90
21666;DHT22;10994;45.486;9.190;2023-03-04T22:30:30;14.60;99.90
21666;DHT22;10994;45.486;9.190;2023-03-04T22:32:55;14.60;99.90
21666;DHT22;10994;45.486;9.190;2023-03-04T22:35:21;14.60;99.90
21666;DHT22;10994;45.486;9.190;2023-03-04T22:37:47;14.60;99.90
21666;DHT22;10994;45.486;9.190;2023-03-04T22:40:13;14.70;99.90
21666;DHT22;10994;45.486;9.190;2023-03-04T22:42:44;14.60;99.90
21666;DHT22;10994;45.486;9.190;2023-03-04T22:45:11;14.50;99.90
21666;DHT22;10994;45.486;9.190;2023-03-04T22:47:37;14.60;99.90
21666;DHT22;10994;45.486;9.190;2023-03-04T22:50:04;14.60;99.90
21666;DHT22;10994;45.486;9.190;2023-03-04T22:52:30;14.60;99.90
21666;DHT22;10994;45.486;9.190;2023-03-04T22:54:59;14.50;99.90
21666;DHT22;10994;45.486;9.190;2023-03-04T22:57:25;14.50;99.90
21666;DHT22;10994;45.486;9.190;2023-03-04T22:59:50;14.50;99.90
21666;DHT22;10994;45.486;9.190;2023-03-04T23:02:16;14.40;99.90
21666;DHT22;10994;45.486;9.190;2023-03-04T23:04:42;14.40;99.90
21666;DHT22;10994;45.486;9.190;2023-03-04T23:07:09;14.40;99.90
21666;DHT22;10994;45.486;9.190;2023-03-04T23:09:34;14.50;99.90
21666;DHT22;10994;45.486;9.190;2023-03-04T23:12:00;14.40;99.90
21666;DHT22;10994;45.486;9.190;2023-03-04T23:14:28;14.40;99.90
21666;DHT22;10994;45.486;9.190;2023-03-04T23:16:54;14.30;99.90
21666;DHT22;10994;45.486;9.190;2023-03-04T23:19:22;14.20;99.90
21666;DHT22;10994;45.486;9.190;2023-03-04T23:21:47;14.20;99.90
21666;DHT22;10994;45.486;9.190;2023-03-04T23:24:13;14.10;99.90
21666;DHT22;10994;45.486;9.190;2023-03-04T23:26:40;14.00;99.90
21666;DHT22;10994;45.486;9.190;2023-03-04T23:29:09;14.10;99.90
21666;DHT22;10994;45.486;9.190;2023-03-04T23:31:36;14.10;99.90
21666;DHT22;10994;45.486;9.190;2023-03-04T23:34:02;14.20;99.90
21666;DHT22;10994;45.486;9.190;2023-03-04T23:36:31;14.20;99.90
21666;DHT22;10994;45.486;9.190;2023-03-04T23:38:57;14.20;99.90
21666;DHT22;10994;45.486;9.190;2023-03-04T23:41:26;14.20;99.90
21666;DHT22;10994;45.486;9.190;2023-03-04T23:43:56;14.20;99.90
21666;DHT22;10994;45.486;9.190;2023-03-04T23:46:23;14.20;99.90
21666;DHT22;10994;45.486;9.190;2023-03-04T23:48:50;14.20;99.90
21666;DHT22;10994;45.486;9.190;2023-03-04T23:51:19;14.20;99.90
21666;DHT22;10994;45.486;9.190;2023-03-04T23:53:45;14.30;99.90
21666;DHT22;10994;45.486;9.190;2023-03-04T23:56:14;14.30;99.90
21666;DHT22;10994;45.486;9.190;2023-03-04T23:58:41;14.20;99.90
